Encruzilhada, Brazil
Current Conditions -  °F | °C
As of 12:00 PM on Tuesday 21 Oct 2014 (Local Time) from SBQV Reporting Station
Broken Clouds Broken Clouds  
Wind Chill: 26°   Ceiling: 2000
Heat Index: 27°   Visibility: 6mi
Dew Point: 18°   Wind: 9mph
Humidity: 61%   Direction: 110°ESE
Pressure: 30.12"   Gusts: NA
Location:  15.53°S, 40.91°W
Report Text: SBQV 211500Z 11008KT 9999 BKN020 SCT090 26/18 Q1020
Loading
Personal Weather Stations






























Interactive Weather Map
Tropical Storm Tracking
New forecast layout! Learn more

10-Day Weather Forecast

Advertisements
Track Severe Weather on mobile